createdAt,value
2019-01-13T00:00:03.311Z,17.3
2019-01-13T00:01:03.534Z,23.4
2019-01-13T00:02:03.505Z,19.4
2019-01-13T00:03:03.273Z,19.4
2019-01-13T00:04:03.067Z,22
2019-01-13T00:05:03.417Z,18.4
2019-01-13T00:06:02.848Z,18.4
2019-01-13T00:07:03.550Z,18.4
2019-01-13T00:08:02.881Z,18.4
2019-01-13T00:09:02.999Z,18.4
2019-01-13T00:10:04.349Z,18.4
2019-01-13T00:11:03.165Z,18.4
2019-01-13T00:12:03.675Z,18.4
2019-01-13T00:13:03.178Z,18.4
2019-01-13T00:14:03.531Z,18.4
2019-01-13T00:15:03.549Z,18.4
2019-01-13T00:16:03.379Z,18.4
2019-01-13T00:17:03.352Z,18.4
2019-01-13T00:18:02.880Z,20.9
2019-01-13T00:19:03.526Z,18.4
2019-01-13T00:20:02.862Z,14.8
2019-01-13T00:21:03.428Z,14.8
2019-01-13T00:22:02.820Z,14.8
2019-01-13T00:23:03.855Z,14.8
2019-01-13T00:24:03.759Z,14.8
2019-01-13T00:25:02.818Z,14.8
2019-01-13T00:26:03.804Z,14.8
2019-01-13T00:27:03.384Z,14.8
2019-01-13T00:28:02.922Z,18.4
2019-01-13T00:29:03.063Z,15.8
2019-01-13T00:30:01.768Z,15.8
2019-01-13T00:31:03.702Z,15.8
2019-01-13T00:32:02.721Z,17.3
2019-01-13T00:33:03.603Z,18.4
2019-01-13T00:34:03.112Z,15.8
2019-01-13T00:35:03.714Z,14.8
2019-01-13T00:36:02.811Z,15.8
2019-01-13T00:37:03.047Z,15.8
2019-01-13T00:38:03.211Z,19.4
2019-01-13T00:39:03.224Z,20.9
2019-01-13T00:40:03.334Z,17.3
2019-01-13T00:41:02.678Z,14.8
2019-01-13T00:42:03.012Z,15.8
2019-01-13T00:43:03.731Z,18.4
2019-01-13T00:44:03.333Z,22
2019-01-13T00:45:02.985Z,19.4
2019-01-13T00:46:03.590Z,15.8
2019-01-13T00:47:03.450Z,14.8
2019-01-13T00:48:03.290Z,14.8
2019-01-13T00:49:02.870Z,14.8
2019-01-13T00:50:03.059Z,14.8
2019-01-13T00:51:03.075Z,14.8
2019-01-13T00:52:03.062Z,15.8
2019-01-13T00:53:03.160Z,15.8
2019-01-13T00:54:03.102Z,15.8
2019-01-13T00:55:02.957Z,14.8
2019-01-13T00:56:02.833Z,15.8
2019-01-13T00:57:03.130Z,15.8
2019-01-13T00:58:03.663Z,15.8
2019-01-13T00:59:03.440Z,13.3
2019-01-13T01:00:03.803Z,13.3
2019-01-13T01:01:02.957Z,13.3
2019-01-13T01:02:02.853Z,13.3
2019-01-13T01:03:03.570Z,14.8
2019-01-13T01:04:03.683Z,17.3
2019-01-13T01:05:03.489Z,15.8
2019-01-13T01:06:03.031Z,15.8
2019-01-13T01:07:03.338Z,19.4
2019-01-13T01:08:03.581Z,15.8
2019-01-13T01:09:03.403Z,17.3
2019-01-13T01:10:03.474Z,14.8
2019-01-13T01:11:03.344Z,18.4
2019-01-13T01:12:02.709Z,18.4
2019-01-13T01:13:03.512Z,18.4
2019-01-13T01:14:03.362Z,18.4
2019-01-13T01:15:02.854Z,14.8
2019-01-13T01:16:03.125Z,12.2
2019-01-13T01:17:03.441Z,17.3
2019-01-13T01:18:04.330Z,15.8
2019-01-13T01:19:03.634Z,14.8
2019-01-13T01:20:03.420Z,17.3
2019-01-13T01:21:03.616Z,15.8
2019-01-13T01:22:02.836Z,15.8
2019-01-13T01:23:03.133Z,14.8
2019-01-13T01:24:03.627Z,17.3
2019-01-13T01:25:03.560Z,14.8
2019-01-13T01:26:02.884Z,15.8
2019-01-13T01:27:03.387Z,15.8
2019-01-13T01:28:03.159Z,15.8
2019-01-13T01:29:03.413Z,14.8
2019-01-13T01:30:03.558Z,14.8
2019-01-13T01:31:03.474Z,14.8
2019-01-13T01:32:03.717Z,17.3
2019-01-13T01:33:02.875Z,14.8
2019-01-13T01:34:03.383Z,15.8
2019-01-13T01:35:03.468Z,15.8
2019-01-13T01:36:02.865Z,18.4
2019-01-13T01:37:03.580Z,17.3
2019-01-13T01:38:03.185Z,15.8
2019-01-13T01:39:03.157Z,14.8
2019-01-13T01:40:03.675Z,18.4
2019-01-13T01:41:03.651Z,17.3
2019-01-13T01:42:03.209Z,18.4
2019-01-13T01:43:03.319Z,18.4
2019-01-13T01:44:02.986Z,19.4
2019-01-13T01:45:03.090Z,19.4
2019-01-13T01:46:03.388Z,14.8
2019-01-13T01:47:03.983Z,18.4
2019-01-13T01:48:03.458Z,22
2019-01-13T01:49:02.555Z,15.8
2019-01-13T01:50:03.749Z,17.3
2019-01-13T01:51:03.042Z,20.9
2019-01-13T01:52:03.622Z,19.4
2019-01-13T01:53:03.542Z,18.4
2019-01-13T01:54:03.379Z,17.3
2019-01-13T01:55:03.358Z,20.9
2019-01-13T01:56:03.267Z,19.4
2019-01-13T01:57:03.554Z,17.3
2019-01-13T01:58:02.720Z,17.3
2019-01-13T01:59:03.556Z,17.3
2019-01-13T02:00:03.145Z,15.8
2019-01-13T02:01:02.837Z,17.3
2019-01-13T02:02:03.267Z,17.3
2019-01-13T02:03:03.306Z,18.4
2019-01-13T02:04:02.993Z,18.4
2019-01-13T02:05:03.644Z,17.3
2019-01-13T02:06:03.540Z,15.8
2019-01-13T02:07:03.141Z,20.9
2019-01-13T02:08:04.153Z,22
2019-01-13T02:09:03.100Z,18.4
2019-01-13T02:10:03.415Z,18.4
2019-01-13T02:11:03.470Z,15.8
2019-01-13T02:12:02.953Z,13.3
2019-01-13T02:13:03.096Z,15.8
2019-01-13T02:14:03.244Z,15.8
2019-01-13T02:15:03.079Z,18.4
2019-01-13T02:16:03.673Z,18.4
2019-01-13T02:17:03.512Z,13.3
2019-01-13T02:18:03.460Z,18.4
2019-01-13T02:19:03.051Z,12.2
2019-01-13T02:20:03.283Z,13.3
2019-01-13T02:21:03.862Z,12.2
2019-01-13T02:22:02.953Z,15.8
2019-01-13T02:23:03.787Z,17.3
2019-01-13T02:24:02.083Z,13.3
2019-01-13T02:25:03.679Z,14.8
2019-01-13T02:26:02.865Z,15.8
2019-01-13T02:27:03.037Z,18.4
2019-01-13T02:28:02.974Z,13.3
2019-01-13T02:29:03.097Z,15.8
2019-01-13T02:30:03.392Z,14.8
2019-01-13T02:31:03.853Z,11.2
2019-01-13T02:32:03.045Z,13.3
2019-01-13T02:33:03.423Z,12.2
2019-01-13T02:34:03.383Z,12.2
2019-01-13T02:35:03.225Z,14.8
2019-01-13T02:36:03.793Z,13.3
2019-01-13T02:37:03.344Z,13.3
2019-01-13T02:38:03.016Z,14.8
2019-01-13T02:39:03.301Z,12.2
2019-01-13T02:40:02.987Z,12.2
2019-01-13T02:41:03.780Z,12.2
2019-01-13T02:42:03.226Z,15.8
2019-01-13T02:43:03.048Z,13.3
2019-01-13T02:44:03.198Z,13.3
2019-01-13T02:45:03.358Z,12.2
2019-01-13T02:46:02.704Z,13.3
2019-01-13T02:47:03.898Z,13.3
2019-01-13T02:48:03.672Z,13.3
2019-01-13T02:49:02.952Z,13.3
2019-01-13T02:50:02.785Z,14.8
2019-01-13T02:51:03.031Z,15.8
2019-01-13T02:52:03.693Z,14.8
2019-01-13T02:53:03.545Z,12.2
2019-01-13T02:54:02.921Z,12.2
2019-01-13T02:55:03.344Z,12.2
2019-01-13T02:56:03.548Z,14.8
2019-01-13T02:57:03.802Z,14.8
2019-01-13T02:58:02.830Z,13.3
2019-01-13T02:59:02.921Z,12.2
2019-01-13T03:00:03.181Z,12.2
2019-01-13T03:01:03.238Z,13.3
2019-01-13T03:02:03.214Z,13.3
2019-01-13T03:03:03.577Z,13.3
2019-01-13T03:04:03.400Z,13.3
2019-01-13T03:05:03.530Z,13.3
2019-01-13T03:06:03.108Z,13.3
2019-01-13T03:07:03.331Z,13.3
2019-01-13T03:08:02.943Z,13.3
2019-01-13T03:09:03.365Z,13.3
2019-01-13T03:10:03.327Z,15.8
2019-01-13T03:11:02.888Z,12.2
2019-01-13T03:12:03.005Z,9.7
2019-01-13T03:13:03.637Z,12.2
2019-01-13T03:14:03.593Z,12.2
2019-01-13T03:15:03.632Z,12.2
2019-01-13T03:16:02.429Z,11.2
2019-01-13T03:17:02.810Z,11.2
2019-01-13T03:18:03.422Z,9.7
2019-01-13T03:19:02.761Z,11.2
2019-01-13T03:20:03.172Z,11.2
2019-01-13T03:21:03.429Z,13.3
2019-01-13T03:22:03.739Z,12.2
2019-01-13T03:23:03.221Z,14.8
2019-01-13T03:24:03.574Z,11.2
2019-01-13T03:25:03.472Z,12.2
2019-01-13T03:26:03.841Z,13.3
2019-01-13T03:27:03.181Z,9.7
2019-01-13T03:28:02.614Z,11.2
2019-01-13T03:29:03.106Z,11.2
2019-01-13T03:30:03.270Z,11.2
2019-01-13T03:31:13.205Z,12.2
2019-01-13T03:32:03.910Z,9.7
2019-01-13T03:33:04.000Z,9.7
2019-01-13T03:34:02.911Z,12.2
2019-01-13T03:35:03.137Z,9.7
2019-01-13T03:36:03.154Z,12.2
2019-01-13T03:37:03.122Z,13.3
2019-01-13T03:38:02.809Z,12.2
2019-01-13T03:39:02.773Z,12.2
2019-01-13T03:40:02.915Z,12.2
2019-01-13T03:41:03.536Z,14.8
2019-01-13T03:42:03.691Z,11.2
2019-01-13T03:43:03.386Z,13.3
2019-01-13T03:44:03.123Z,13.3
2019-01-13T03:45:03.505Z,13.3
2019-01-13T03:46:02.992Z,12.2
2019-01-13T03:47:03.423Z,15.8
2019-01-13T03:48:03.358Z,13.3
2019-01-13T03:49:03.585Z,17.3
2019-01-13T03:50:03.278Z,13.3
2019-01-13T03:51:03.354Z,13.3
2019-01-13T03:52:03.213Z,14.8
2019-01-13T03:53:02.855Z,13.3
2019-01-13T03:54:03.521Z,14.8
2019-01-13T03:55:03.441Z,12.2
2019-01-13T03:56:02.976Z,12.2
2019-01-13T03:57:03.670Z,13.3
2019-01-13T03:58:03.410Z,13.3
2019-01-13T03:59:03.086Z,13.3
2019-01-13T04:00:03.604Z,14.8
2019-01-13T04:01:02.970Z,15.8
2019-01-13T04:02:02.979Z,13.3
2019-01-13T04:03:03.051Z,17.3
2019-01-13T04:04:03.552Z,17.3
2019-01-13T04:05:03.207Z,14.8
2019-01-13T04:06:03.634Z,14.8
2019-01-13T04:07:03.691Z,12.2
2019-01-13T04:08:03.367Z,12.2
2019-01-13T04:09:03.195Z,12.2
2019-01-13T04:10:03.723Z,13.3
2019-01-13T04:11:03.236Z,19.4
2019-01-13T04:12:03.694Z,15.8
2019-01-13T04:13:03.028Z,13.3
2019-01-13T04:14:03.287Z,12.2
2019-01-13T04:15:03.868Z,11.2
2019-01-13T04:16:03.325Z,12.2
2019-01-13T04:17:03.313Z,13.3
2019-01-13T04:18:03.082Z,13.3
2019-01-13T04:19:02.729Z,13.3
2019-01-13T04:20:03.714Z,13.3
2019-01-13T04:21:02.735Z,17.3
2019-01-13T04:22:03.585Z,15.8
2019-01-13T04:23:02.686Z,15.8
2019-01-13T04:24:03.449Z,18.4
2019-01-13T04:25:02.830Z,17.3
2019-01-13T04:26:03.530Z,15.8
2019-01-13T04:27:03.448Z,15.8
2019-01-13T04:28:03.217Z,15.8
2019-01-13T04:29:03.243Z,15.8
2019-01-13T04:30:03.508Z,14.8
2019-01-13T04:31:02.808Z,14.8
2019-01-13T04:32:03.672Z,19.4
2019-01-13T04:33:02.993Z,15.8
2019-01-13T04:34:03.054Z,18.4
2019-01-13T04:35:03.655Z,15.8
2019-01-13T04:36:03.705Z,18.4
2019-01-13T04:37:03.198Z,15.8
2019-01-13T04:38:02.837Z,17.3
2019-01-13T04:39:03.217Z,17.3
2019-01-13T04:40:03.233Z,18.4
2019-01-13T04:41:03.401Z,18.4
2019-01-13T04:42:03.598Z,17.3
2019-01-13T04:43:02.959Z,20.9
2019-01-13T04:44:02.865Z,17.3
2019-01-13T04:45:02.985Z,18.4
2019-01-13T04:46:03.084Z,14.8
2019-01-13T04:47:03.561Z,14.8
2019-01-13T04:48:03.608Z,15.8
2019-01-13T04:49:03.079Z,15.8
2019-01-13T04:50:03.141Z,19.4
2019-01-13T04:51:03.445Z,19.4
2019-01-13T04:52:03.416Z,19.4
2019-01-13T04:53:03.021Z,19.4
2019-01-13T04:54:03.130Z,14.8
2019-01-13T04:55:03.047Z,15.8
2019-01-13T04:56:03.634Z,14.8
2019-01-13T04:57:03.384Z,14.8
2019-01-13T04:58:03.025Z,13.3
2019-01-13T04:59:02.841Z,18.4
2019-01-13T05:00:03.324Z,17.3
2019-01-13T05:01:02.903Z,17.3
2019-01-13T05:02:03.475Z,17.3
2019-01-13T05:03:03.335Z,17.3
2019-01-13T05:04:02.934Z,17.3
2019-01-13T05:05:03.402Z,17.3
2019-01-13T05:06:03.769Z,17.3
2019-01-13T05:07:03.210Z,17.3
2019-01-13T05:08:03.626Z,17.3
2019-01-13T05:09:02.973Z,17.3
2019-01-13T05:10:03.865Z,13.3
2019-01-13T05:11:03.241Z,12.2
2019-01-13T05:12:03.569Z,12.2
2019-01-13T05:13:02.636Z,12.2
2019-01-13T05:14:03.063Z,12.2
2019-01-13T05:15:03.435Z,12.2
2019-01-13T05:16:02.961Z,14.8
2019-01-13T05:17:02.751Z,12.2
2019-01-13T05:18:02.991Z,12.2
2019-01-13T05:19:03.801Z,12.2
2019-01-13T05:20:03.360Z,9.7
2019-01-13T05:21:03.129Z,9.7
2019-01-13T05:22:03.229Z,11.2
2019-01-13T05:23:03.345Z,11.2
2019-01-13T05:24:02.707Z,9.7
2019-01-13T05:25:03.777Z,9.7
2019-01-13T05:26:03.837Z,11.2
2019-01-13T05:27:03.737Z,11.2
2019-01-13T05:28:03.549Z,9.7
2019-01-13T05:29:03.605Z,8.6
2019-01-13T05:30:02.934Z,9.7
2019-01-13T05:31:03.751Z,11.2
2019-01-13T05:32:03.497Z,8.6
2019-01-13T05:33:02.862Z,8.6
2019-01-13T05:34:02.852Z,11.2
2019-01-13T05:35:03.608Z,12.2
2019-01-13T05:36:02.873Z,11.2
2019-01-13T05:37:03.704Z,12.2
2019-01-13T05:38:02.828Z,8.6
2019-01-13T05:39:03.040Z,8.6
2019-01-13T05:40:03.351Z,8.6
2019-01-13T05:41:03.015Z,9.7
2019-01-13T05:42:03.210Z,7.2
2019-01-13T05:43:03.640Z,8.6
2019-01-13T05:44:02.926Z,8.6
2019-01-13T05:45:03.700Z,8.6
2019-01-13T05:46:03.061Z,12.2
2019-01-13T05:47:03.534Z,7.2
2019-01-13T05:48:02.794Z,6.1
2019-01-13T05:49:03.563Z,8.6
2019-01-13T05:50:03.383Z,8.6
2019-01-13T05:51:03.239Z,7.2
2019-01-13T05:52:02.992Z,11.2
2019-01-13T05:53:02.797Z,9.7
2019-01-13T05:54:02.916Z,8.6
2019-01-13T05:55:03.627Z,7.2
2019-01-13T05:56:03.251Z,8.6
2019-01-13T05:57:03.250Z,9.7
2019-01-13T05:58:03.608Z,7.2
2019-01-13T05:59:02.851Z,6.1
2019-01-13T06:00:03.314Z,7.2
2019-01-13T06:01:03.691Z,7.2
2019-01-13T06:02:03.322Z,6.1
2019-01-13T06:03:02.764Z,6.1
2019-01-13T06:04:03.454Z,7.2
2019-01-13T06:05:03.843Z,5
2019-01-13T06:06:03.477Z,5
2019-01-13T06:07:02.993Z,6.1
2019-01-13T06:08:03.741Z,5
2019-01-13T06:09:03.265Z,6.1
2019-01-13T06:10:03.064Z,7.2
2019-01-13T06:11:03.431Z,5
2019-01-13T06:12:03.696Z,2.5
2019-01-13T06:13:03.686Z,2.5
2019-01-13T06:14:03.026Z,6.1
2019-01-13T06:15:03.108Z,5
2019-01-13T06:16:03.583Z,6.1
2019-01-13T06:17:02.766Z,6.1
2019-01-13T06:18:03.463Z,8.6
2019-01-13T06:19:03.161Z,5
2019-01-13T06:20:03.488Z,5
2019-01-13T06:21:03.003Z,5
2019-01-13T06:22:03.493Z,5
2019-01-13T06:23:03.484Z,7.2
2019-01-13T06:24:03.143Z,6.1
2019-01-13T06:25:03.127Z,5
2019-01-13T06:26:03.255Z,5
2019-01-13T06:27:03.020Z,3.6
2019-01-13T06:28:03.091Z,3.6
2019-01-13T06:29:02.954Z,3.6
2019-01-13T06:30:03.285Z,3.6
2019-01-13T06:31:03.117Z,6.1
2019-01-13T06:32:03.168Z,3.6
2019-01-13T06:33:03.062Z,2.5
2019-01-13T06:34:03.110Z,5
2019-01-13T06:35:02.801Z,7.2
2019-01-13T06:36:03.611Z,2.5
2019-01-13T06:37:03.322Z,6.1
2019-01-13T06:38:04.042Z,6.1
2019-01-13T06:39:03.480Z,3.6
2019-01-13T06:40:03.323Z,3.6
2019-01-13T06:41:03.316Z,6.1
2019-01-13T06:42:03.144Z,6.1
2019-01-13T06:43:03.400Z,3.6
2019-01-13T06:44:03.290Z,9.7
2019-01-13T06:45:03.333Z,9.7
2019-01-13T06:46:02.828Z,9.7
2019-01-13T06:47:02.938Z,6.1
2019-01-13T06:48:03.671Z,6.1
2019-01-13T06:49:02.873Z,6.1
2019-01-13T06:50:03.341Z,3.6
2019-01-13T06:51:02.990Z,6.1
2019-01-13T06:52:03.040Z,8.6
2019-01-13T06:53:03.792Z,6.1
2019-01-13T06:54:02.879Z,7.2
2019-01-13T06:55:03.172Z,7.2
2019-01-13T06:56:03.132Z,9.7
2019-01-13T06:57:03.291Z,11.2
2019-01-13T06:58:03.087Z,3.6
2019-01-13T06:59:03.067Z,6.1
2019-01-13T07:00:03.608Z,3.6
2019-01-13T07:01:03.218Z,5
2019-01-13T07:02:03.844Z,5
2019-01-13T07:03:03.163Z,5
2019-01-13T07:04:02.908Z,5
2019-01-13T07:05:03.650Z,5
2019-01-13T07:06:03.470Z,5
2019-01-13T07:07:02.790Z,5
2019-01-13T07:08:03.333Z,5
2019-01-13T07:09:02.768Z,5
2019-01-13T07:10:03.048Z,7.2
2019-01-13T07:11:03.198Z,7.2
2019-01-13T07:12:03.158Z,6.1
2019-01-13T07:13:03.019Z,7.2
2019-01-13T07:14:03.541Z,9.7
2019-01-13T07:15:03.845Z,7.2
2019-01-13T07:16:03.723Z,5
2019-01-13T07:17:03.520Z,3.6
2019-01-13T07:18:03.586Z,3.6
2019-01-13T07:19:03.968Z,6.1
2019-01-13T07:20:03.836Z,6.1
2019-01-13T07:21:02.813Z,6.1
2019-01-13T07:22:03.518Z,3.6
2019-01-13T07:23:02.742Z,6.1
2019-01-13T07:24:03.591Z,6.1
2019-01-13T07:25:03.524Z,7.2
2019-01-13T07:26:02.626Z,8.6
2019-01-13T07:27:03.750Z,6.1
2019-01-13T07:28:02.917Z,5
2019-01-13T07:29:03.657Z,6.1
2019-01-13T07:30:03.039Z,5
2019-01-13T07:31:03.361Z,6.1
2019-01-13T07:32:03.183Z,7.2
2019-01-13T07:33:03.031Z,6.1
2019-01-13T07:34:03.750Z,3.6
2019-01-13T07:35:03.244Z,3.6
2019-01-13T07:36:01.838Z,3.6
2019-01-13T07:37:02.914Z,7.2
2019-01-13T07:38:03.161Z,8.6
2019-01-13T07:39:03.725Z,7.2
2019-01-13T07:40:03.022Z,3.6
2019-01-13T07:41:03.768Z,5
2019-01-13T07:42:02.710Z,6.1
2019-01-13T07:43:03.540Z,7.2
2019-01-13T07:44:03.741Z,7.2
2019-01-13T07:45:03.071Z,9.7
2019-01-13T07:46:03.642Z,8.6
2019-01-13T07:47:03.555Z,6.1
2019-01-13T07:48:03.232Z,8.6
2019-01-13T07:49:03.443Z,8.6
2019-01-13T07:50:03.603Z,8.6
2019-01-13T07:51:03.094Z,8.6
2019-01-13T07:52:03.057Z,9.7
2019-01-13T07:53:02.857Z,9.7
2019-01-13T07:54:03.914Z,8.6
2019-01-13T07:55:02.944Z,8.6
2019-01-13T07:56:03.037Z,8.6
2019-01-13T07:57:02.791Z,6.1
2019-01-13T07:58:04.016Z,9.7
2019-01-13T07:59:02.926Z,9.7
2019-01-13T08:00:03.205Z,9.7
2019-01-13T08:01:03.882Z,8.6
2019-01-13T08:02:03.199Z,9.7
2019-01-13T08:03:02.930Z,14.8
2019-01-13T08:04:03.305Z,9.7
2019-01-13T08:05:03.425Z,12.2
2019-01-13T08:06:02.858Z,14.8
2019-01-13T08:07:03.593Z,13.3
2019-01-13T08:08:03.337Z,9.7
2019-01-13T08:09:03.086Z,9.7
2019-01-13T08:10:03.603Z,9.7
2019-01-13T08:11:03.639Z,7.2
2019-01-13T08:12:03.215Z,6.1
2019-01-13T08:13:03.528Z,7.2
2019-01-13T08:14:03.398Z,8.6
2019-01-13T08:15:03.460Z,9.7
2019-01-13T08:16:03.040Z,7.2
2019-01-13T08:17:02.891Z,8.6
2019-01-13T08:18:02.896Z,9.7
2019-01-13T08:19:03.008Z,7.2
2019-01-13T08:20:03.166Z,8.6
2019-01-13T08:21:03.195Z,7.2
2019-01-13T08:22:03.529Z,5
2019-01-13T08:23:02.294Z,5
2019-01-13T08:24:03.316Z,8.6
2019-01-13T08:25:03.593Z,8.6
2019-01-13T08:26:03.360Z,7.2
2019-01-13T08:27:03.412Z,7.2
2019-01-13T08:28:02.923Z,5
2019-01-13T08:29:03.153Z,6.1
2019-01-13T08:30:03.824Z,5
2019-01-13T08:31:03.538Z,7.2
2019-01-13T08:32:02.991Z,7.2
2019-01-13T08:33:03.583Z,3.6
2019-01-13T08:34:03.409Z,6.1
2019-01-13T08:35:02.982Z,8.6
2019-01-13T08:36:02.893Z,7.2
2019-01-13T08:37:03.711Z,7.2
2019-01-13T08:38:02.861Z,9.7
2019-01-13T08:39:02.994Z,11.2
2019-01-13T08:40:03.982Z,5
2019-01-13T08:41:03.006Z,8.6
2019-01-13T08:42:03.680Z,8.6
2019-01-13T08:43:03.319Z,8.6
2019-01-13T08:44:03.578Z,6.1
2019-01-13T08:45:03.403Z,6.1
2019-01-13T08:46:02.889Z,8.6
2019-01-13T08:47:03.742Z,12.2
2019-01-13T08:48:03.013Z,9.7
2019-01-13T08:49:03.090Z,11.2
2019-01-13T08:50:03.791Z,11.2
2019-01-13T08:51:03.223Z,11.2
2019-01-13T08:52:03.016Z,11.2
2019-01-13T08:53:03.542Z,11.2
2019-01-13T08:54:03.683Z,13.3
2019-01-13T08:55:03.808Z,12.2
2019-01-13T08:56:03.295Z,12.2
2019-01-13T08:57:03.140Z,12.2
2019-01-13T08:58:03.818Z,12.2
2019-01-13T08:59:02.922Z,12.2
2019-01-13T09:00:02.873Z,11.2
2019-01-13T09:01:03.645Z,11.2
2019-01-13T09:02:03.514Z,13.3
2019-01-13T09:03:02.853Z,13.3
2019-01-13T09:04:03.517Z,13.3
2019-01-13T09:05:03.163Z,13.3
2019-01-13T09:06:02.771Z,13.3
2019-01-13T09:07:03.382Z,13.3
2019-01-13T09:08:03.305Z,13.3
2019-01-13T09:09:03.667Z,9.7
2019-01-13T09:10:03.165Z,8.6
2019-01-13T09:11:03.465Z,7.2
2019-01-13T09:12:03.041Z,9.7
2019-01-13T09:13:02.908Z,8.6
2019-01-13T09:14:03.367Z,11.2
2019-01-13T09:15:03.420Z,12.2
2019-01-13T09:16:03.294Z,11.2
2019-01-13T09:17:03.639Z,11.2
2019-01-13T09:18:03.647Z,13.3
2019-01-13T09:19:03.125Z,9.7
2019-01-13T09:20:03.191Z,9.7
2019-01-13T09:21:02.949Z,9.7
2019-01-13T09:22:03.267Z,9.7
2019-01-13T09:23:03.201Z,9.7
2019-01-13T09:24:02.979Z,9.7
2019-01-13T09:25:03.743Z,9.7
2019-01-13T09:26:02.965Z,9.7
2019-01-13T09:27:03.054Z,9.7
2019-01-13T09:28:04.042Z,9.7
2019-01-13T09:29:02.804Z,9.7
2019-01-13T09:30:03.054Z,9.7
2019-01-13T09:31:02.980Z,9.7
2019-01-13T09:32:03.122Z,9.7
2019-01-13T09:33:03.169Z,9.7
2019-01-13T09:34:03.468Z,11.2
2019-01-13T09:35:03.674Z,9.7
2019-01-13T09:36:03.131Z,9.7
2019-01-13T09:37:03.176Z,9.7
2019-01-13T09:38:03.036Z,9.7
2019-01-13T09:39:03.362Z,12.2
2019-01-13T09:40:03.280Z,12.2
2019-01-13T09:41:03.294Z,12.2
2019-01-13T09:42:02.994Z,9.7
2019-01-13T09:43:03.223Z,11.2
2019-01-13T09:44:03.382Z,11.2
2019-01-13T09:45:02.859Z,12.2
2019-01-13T09:46:02.826Z,9.7
2019-01-13T09:47:02.775Z,11.2
2019-01-13T09:48:03.656Z,8.6
2019-01-13T09:49:03.337Z,9.7
2019-01-13T09:50:03.530Z,9.7
2019-01-13T09:51:03.877Z,7.2
2019-01-13T09:52:03.270Z,9.7
2019-01-13T09:53:03.794Z,11.2
2019-01-13T09:54:03.041Z,11.2
2019-01-13T09:55:02.995Z,9.7
2019-01-13T09:56:03.467Z,7.2
2019-01-13T09:57:03.003Z,12.2
2019-01-13T09:58:03.047Z,11.2
2019-01-13T09:59:03.208Z,9.7
2019-01-13T10:00:02.879Z,8.6
2019-01-13T10:01:03.302Z,8.6
2019-01-13T10:02:02.923Z,7.2
2019-01-13T10:03:03.424Z,8.6
2019-01-13T10:04:03.727Z,11.2
2019-01-13T10:05:03.535Z,12.2
2019-01-13T10:06:03.280Z,7.2
2019-01-13T10:07:03.502Z,12.2
2019-01-13T10:08:02.853Z,9.7
2019-01-13T10:09:03.001Z,7.2
2019-01-13T10:10:03.553Z,7.2
2019-01-13T10:11:02.948Z,11.2
2019-01-13T10:12:03.238Z,11.2
2019-01-13T10:13:03.705Z,11.2
2019-01-13T10:14:02.882Z,9.7
2019-01-13T10:15:02.872Z,12.2
2019-01-13T10:16:03.692Z,8.6
2019-01-13T10:17:03.142Z,12.2
2019-01-13T10:18:03.505Z,11.2
2019-01-13T10:19:03.216Z,11.2
2019-01-13T10:20:03.728Z,17.3
2019-01-13T10:21:03.173Z,12.2
2019-01-13T10:22:02.962Z,12.2
2019-01-13T10:23:03.527Z,11.2
2019-01-13T10:24:03.707Z,12.2
2019-01-13T10:25:03.468Z,8.6
2019-01-13T10:26:02.906Z,12.2
2019-01-13T10:27:03.365Z,11.2
2019-01-13T10:28:03.599Z,12.2
2019-01-13T10:29:03.303Z,13.3
2019-01-13T10:30:02.979Z,12.2
2019-01-13T10:31:03.832Z,11.2
2019-01-13T10:32:03.032Z,12.2
2019-01-13T10:33:03.298Z,17.3
2019-01-13T10:34:03.422Z,17.3
2019-01-13T10:35:03.106Z,14.8
2019-01-13T10:36:03.760Z,13.3
2019-01-13T10:37:03.540Z,12.2
2019-01-13T10:38:03.665Z,12.2
2019-01-13T10:39:02.682Z,14.8
2019-01-13T10:40:03.736Z,12.2
2019-01-13T10:41:03.380Z,12.2
2019-01-13T10:42:03.565Z,12.2
2019-01-13T10:43:03.066Z,13.3
2019-01-13T10:44:02.994Z,13.3
2019-01-13T10:45:03.421Z,13.3
2019-01-13T10:46:03.399Z,13.3
2019-01-13T10:47:03.504Z,13.3
2019-01-13T10:48:02.978Z,14.8
2019-01-13T10:49:03.211Z,15.8
2019-01-13T10:50:03.074Z,11.2
2019-01-13T10:51:03.741Z,15.8
2019-01-13T10:52:02.901Z,17.3
2019-01-13T10:53:02.871Z,13.3
2019-01-13T10:54:09.896Z,11.2
2019-01-13T10:55:03.502Z,15.8
2019-01-13T10:56:03.715Z,22
2019-01-13T10:57:02.811Z,15.8
2019-01-13T10:58:03.150Z,15.8
2019-01-13T10:59:03.530Z,14.8
2019-01-13T11:00:03.142Z,20.9
2019-01-13T11:01:03.480Z,18.4
2019-01-13T11:02:03.265Z,18.4
2019-01-13T11:03:03.717Z,18.4
2019-01-13T11:04:01.989Z,18.4
2019-01-13T11:05:03.163Z,18.4
2019-01-13T11:06:03.668Z,18.4
2019-01-13T11:07:02.829Z,18.4
2019-01-13T11:08:02.400Z,18.4
2019-01-13T11:09:03.555Z,20.9
2019-01-13T11:10:03.578Z,14.8
2019-01-13T11:11:03.463Z,19.4
2019-01-13T11:12:03.757Z,18.4
2019-01-13T11:13:03.638Z,20.9
2019-01-13T11:14:03.268Z,27
2019-01-13T11:15:03.496Z,19.4
2019-01-13T11:16:03.398Z,17.3
2019-01-13T11:17:01.989Z,17.3
2019-01-13T11:18:02.875Z,15.8
2019-01-13T11:19:03.542Z,12.2
2019-01-13T11:20:03.270Z,13.3
2019-01-13T11:21:03.465Z,18.4
2019-01-13T11:22:03.698Z,14.8
2019-01-13T11:23:03.042Z,18.4
2019-01-13T11:24:02.921Z,14.8
2019-01-13T11:25:03.873Z,14.8
2019-01-13T11:26:03.846Z,14.8
2019-01-13T11:27:03.492Z,14.8
2019-01-13T11:28:03.334Z,14.8
2019-01-13T11:29:04.077Z,14.8
2019-01-13T11:30:03.677Z,15.8
2019-01-13T11:31:03.374Z,15.8
2019-01-13T11:32:02.764Z,14.8
2019-01-13T11:33:10.202Z,15.8
2019-01-13T11:34:03.343Z,18.4
2019-01-13T11:35:03.088Z,15.8
2019-01-13T11:36:03.445Z,13.3
2019-01-13T11:37:03.459Z,13.3
2019-01-13T11:38:03.248Z,17.3
2019-01-13T11:39:03.712Z,20.9
2019-01-13T11:40:03.032Z,14.8
2019-01-13T11:41:03.112Z,13.3
2019-01-13T11:42:03.301Z,14.8
2019-01-13T11:43:03.443Z,18.4
2019-01-13T11:44:02.987Z,18.4
2019-01-13T11:45:03.198Z,12.2
2019-01-13T11:46:02.930Z,15.8
2019-01-13T11:47:03.833Z,12.2
2019-01-13T11:48:03.598Z,9.7
2019-01-13T11:49:03.718Z,12.2
2019-01-13T11:50:02.922Z,18.4
2019-01-13T11:51:04.073Z,19.4
2019-01-13T11:52:02.932Z,17.3
2019-01-13T11:53:03.802Z,17.3
2019-01-13T11:54:03.488Z,17.3
2019-01-13T11:55:03.336Z,19.4
2019-01-13T11:56:03.454Z,18.4
2019-01-13T11:57:03.274Z,22
2019-01-13T11:58:03.289Z,22
2019-01-13T11:59:03.757Z,22
2019-01-13T12:00:03.126Z,23.4
2019-01-13T12:01:03.220Z,18.4
2019-01-13T12:02:03.272Z,19.4
2019-01-13T12:03:07.306Z,24.5
2019-01-13T12:04:03.677Z,23.4
2019-01-13T12:05:03.389Z,17.3
2019-01-13T12:06:03.579Z,14.8
2019-01-13T12:07:03.197Z,19.4
2019-01-13T12:08:03.825Z,15.8
2019-01-13T12:09:03.612Z,22
2019-01-13T12:10:03.837Z,18.4
2019-01-13T12:11:03.642Z,23.4
2019-01-13T12:12:02.805Z,22
2019-01-13T12:13:03.220Z,18.4
2019-01-13T12:14:02.995Z,14.8
2019-01-13T12:15:03.833Z,20.9
2019-01-13T12:16:03.249Z,18.4
2019-01-13T12:17:03.577Z,18.4
2019-01-13T12:18:03.338Z,18.4
2019-01-13T12:19:03.755Z,19.4
2019-01-13T12:20:02.854Z,20.9
2019-01-13T12:21:03.058Z,23.4
2019-01-13T12:22:03.525Z,23.4
2019-01-13T12:23:02.834Z,24.5
2019-01-13T12:24:02.886Z,24.5
2019-01-13T12:25:03.568Z,23.4
2019-01-13T12:26:03.824Z,28.1
2019-01-13T12:27:03.159Z,19.4
2019-01-13T12:28:03.161Z,23.4
2019-01-13T12:29:03.087Z,23.4
2019-01-13T12:30:03.082Z,19.4
2019-01-13T12:31:03.297Z,23.4
2019-01-13T12:32:03.619Z,17.3
2019-01-13T12:33:03.336Z,14.8
2019-01-13T12:34:02.558Z,20.9
2019-01-13T12:35:02.913Z,18.4
2019-01-13T12:36:03.722Z,20.9
2019-01-13T12:37:03.591Z,18.4
2019-01-13T12:38:03.561Z,18.4
2019-01-13T12:39:02.967Z,24.5
2019-01-13T12:40:03.622Z,20.9
2019-01-13T12:41:02.972Z,18.4
2019-01-13T12:42:03.614Z,15.8
2019-01-13T12:43:03.714Z,18.4
2019-01-13T12:44:03.363Z,19.4
2019-01-13T12:45:02.922Z,14.8
2019-01-13T12:46:02.850Z,12.2
2019-01-13T12:47:03.504Z,12.2
2019-01-13T12:48:02.982Z,15.8
2019-01-13T12:49:03.728Z,12.2
2019-01-13T12:50:03.304Z,18.4
2019-01-13T12:51:03.722Z,13.3
2019-01-13T12:52:02.663Z,14.8
2019-01-13T12:53:03.367Z,15.8
2019-01-13T12:54:03.541Z,22
2019-01-13T12:55:03.513Z,25.6
2019-01-13T12:56:03.163Z,22
2019-01-13T12:57:03.597Z,15.8
2019-01-13T12:58:03.254Z,17.3
2019-01-13T12:59:03.488Z,14.8
2019-01-13T13:00:03.660Z,14.8
2019-01-13T13:01:03.344Z,17.3
2019-01-13T13:02:03.025Z,17.3
2019-01-13T13:03:03.200Z,17.3
2019-01-13T13:04:03.460Z,17.3
2019-01-13T13:05:03.419Z,17.3
2019-01-13T13:06:03.354Z,17.3
2019-01-13T13:07:03.364Z,17.3
2019-01-13T13:08:03.183Z,17.3
2019-01-13T13:09:03.008Z,13.3
2019-01-13T13:10:02.828Z,11.2
2019-01-13T13:11:03.670Z,18.4
2019-01-13T13:12:03.001Z,18.4
2019-01-13T13:13:03.579Z,15.8
2019-01-13T13:14:03.813Z,19.4
2019-01-13T13:15:03.666Z,15.8
2019-01-13T13:16:03.534Z,19.4
2019-01-13T13:17:02.987Z,20.9
2019-01-13T13:18:02.967Z,17.3
2019-01-13T13:19:03.319Z,15.8
2019-01-13T13:20:03.324Z,13.3
2019-01-13T13:21:03.043Z,14.8
2019-01-13T13:22:03.389Z,19.4
2019-01-13T13:23:04.639Z,12.2
2019-01-13T13:24:03.206Z,15.8
2019-01-13T13:25:03.132Z,13.3
2019-01-13T13:26:03.410Z,18.4
2019-01-13T13:27:03.510Z,18.4
2019-01-13T13:28:03.555Z,11.2
2019-01-13T13:29:02.891Z,14.8